BCS2MC EIDW-EGNX
Flight info
| Callsign | BCS2MC |
|---|---|
| Flight time | 0h 48m |
| Altitude | 27000 |
| Route | DEXEN2J DEXEN UY124 DOLOP |
| Aircraft | B738/M-SDE2E3FGHIRWXY/LB1 |
Departure
| Time | 2026-05-06 02:50 |
|---|---|
| Airport | Dublin Airport (EIDW) |
Arrival
| Time | 2026-05-06 03:38 |
|---|---|
| Airport | East Midlands Airport (EGNX) |
| Time | Latitude | Longitude | Altitude | Speed | Heading |
|---|---|---|---|---|---|
| 2026-05-06 01:59 | 53.42427 | -6.26093 | 210 ft | 0 kts | 225° |
| 2026-05-06 02:36 | 53.42433 | -6.26083 | 220 ft | 4 kts | 225° |
| 2026-05-06 02:36 | 53.42452 | -6.26050 | 211 ft | 4 kts | 225° |
| 2026-05-06 02:36 | 53.42469 | -6.26022 | 220 ft | 4 kts | 222° |
| 2026-05-06 02:36 | 53.42488 | -6.26003 | 216 ft | 4 kts | 164° |
| 2026-05-06 02:37 | 53.42502 | -6.26027 | 214 ft | 4 kts | 103° |
| 2026-05-06 02:37 | 53.42505 | -6.26072 | 211 ft | 4 kts | 95° |
| 2026-05-06 02:37 | 53.42506 | -6.26083 | 210 ft | 1 kts | 95° |
| 2026-05-06 02:41 | 53.42505 | -6.26056 | 210 ft | 5 kts | 95° |
| 2026-05-06 02:42 | 53.42500 | -6.25973 | 216 ft | 8 kts | 95° |
| 2026-05-06 02:42 | 53.42482 | -6.25880 | 211 ft | 8 kts | 120° |
| 2026-05-06 02:42 | 53.42482 | -6.25789 | 215 ft | 8 kts | 58° |
| 2026-05-06 02:42 | 53.42521 | -6.25720 | 210 ft | 8 kts | 45° |
| 2026-05-06 02:43 | 53.42560 | -6.25655 | 212 ft | 8 kts | 45° |
| 2026-05-06 02:43 | 53.42597 | -6.25593 | 210 ft | 7 kts | 44° |
| 2026-05-06 02:43 | 53.42636 | -6.25523 | 214 ft | 11 kts | 47° |
| 2026-05-06 02:43 | 53.42708 | -6.25400 | 216 ft | 16 kts | 45° |
| 2026-05-06 02:44 | 53.42784 | -6.25277 | 215 ft | 11 kts | 33° |
| 2026-05-06 02:44 | 53.42859 | -6.25289 | 214 ft | 12 kts | 336° |
| 2026-05-06 02:44 | 53.42944 | -6.25351 | 216 ft | 14 kts | 336° |
| 2026-05-06 02:44 | 53.43031 | -6.25415 | 210 ft | 13 kts | 336° |
| 2026-05-06 02:45 | 53.43114 | -6.25477 | 214 ft | 13 kts | 337° |
| 2026-05-06 02:45 | 53.43195 | -6.25535 | 213 ft | 13 kts | 336° |
| 2026-05-06 02:45 | 53.43274 | -6.25592 | 210 ft | 12 kts | 336° |
| 2026-05-06 02:45 | 53.43351 | -6.25648 | 214 ft | 12 kts | 339° |
| 2026-05-06 02:46 | 53.43407 | -6.25586 | 213 ft | 12 kts | 85° |
| 2026-05-06 02:46 | 53.43402 | -6.25453 | 218 ft | 11 kts | 94° |
| 2026-05-06 02:46 | 53.43395 | -6.25324 | 210 ft | 11 kts | 97° |
| 2026-05-06 02:46 | 53.43386 | -6.25191 | 219 ft | 13 kts | 95° |
| 2026-05-06 02:47 | 53.43380 | -6.25077 | 210 ft | 17 kts | 95° |
| 2026-05-06 02:47 | 53.43369 | -6.24864 | 210 ft | 19 kts | 95° |
| 2026-05-06 02:47 | 53.43359 | -6.24668 | 218 ft | 11 kts | 95° |
| 2026-05-06 02:47 | 53.43378 | -6.24573 | 215 ft | 5 kts | 37° |
| 2026-05-06 02:48 | 53.43412 | -6.24560 | 213 ft | 4 kts | 7° |
| 2026-05-06 02:48 | 53.43442 | -6.24554 | 211 ft | 4 kts | 7° |
| 2026-05-06 02:48 | 53.43471 | -6.24548 | 221 ft | 5 kts | 6° |
| 2026-05-06 02:48 | 53.43515 | -6.24576 | 214 ft | 10 kts | 313° |
| 2026-05-06 02:49 | 53.43531 | -6.24697 | 217 ft | 11 kts | 275° |
| 2026-05-06 02:49 | 53.43538 | -6.24835 | 212 ft | 14 kts | 275° |
| 2026-05-06 02:49 | 53.43560 | -6.25246 | 214 ft | 72 kts | 275° |
| 2026-05-06 02:49 | 53.43631 | -6.26518 | 216 ft | 143 kts | 276° |
| 2026-05-06 02:50 | 53.43722 | -6.28244 | 848 ft | 148 kts | 276° |
| 2026-05-06 02:50 | 53.43901 | -6.30014 | 1550 ft | 164 kts | 291° |
| 2026-05-06 02:50 | 53.44621 | -6.31680 | 1982 ft | 196 kts | 322° |
| 2026-05-06 02:50 | 53.45649 | -6.33322 | 2597 ft | 209 kts | 311° |
| 2026-05-06 02:51 | 53.46513 | -6.35313 | 3415 ft | 215 kts | 304° |
| 2026-05-06 02:51 | 53.47399 | -6.37450 | 3892 ft | 241 kts | 308° |
| 2026-05-06 02:51 | 53.48434 | -6.39783 | 4654 ft | 252 kts | 308° |
| 2026-05-06 02:51 | 53.49473 | -6.42163 | 5660 ft | 255 kts | 307° |
| 2026-05-06 02:52 | 53.50529 | -6.44630 | 6542 ft | 264 kts | 305° |
| 2026-05-06 02:52 | 53.51173 | -6.47530 | 7435 ft | 271 kts | 276° |
| 2026-05-06 02:52 | 53.50928 | -6.50666 | 8418 ft | 276 kts | 251° |
| 2026-05-06 02:52 | 53.49891 | -6.53397 | 8882 ft | 283 kts | 224° |
| 2026-05-06 02:53 | 53.48189 | -6.55095 | 9050 ft | 290 kts | 198° |
| 2026-05-06 02:53 | 53.46185 | -6.55344 | 9073 ft | 292 kts | 171° |
| 2026-05-06 02:53 | 53.44326 | -6.54046 | 9060 ft | 293 kts | 142° |
| 2026-05-06 02:53 | 53.42969 | -6.51539 | 9059 ft | 292 kts | 122° |
| 2026-05-06 02:54 | 53.41934 | -6.48607 | 9050 ft | 292 kts | 118° |
| 2026-05-06 02:54 | 53.40955 | -6.45622 | 9047 ft | 293 kts | 118° |
| 2026-05-06 02:54 | 53.39955 | -6.42648 | 9045 ft | 293 kts | 119° |
| 2026-05-06 02:54 | 53.38934 | -6.39695 | 9047 ft | 293 kts | 119° |
| 2026-05-06 02:55 | 53.37905 | -6.36755 | 9043 ft | 293 kts | 120° |
| 2026-05-06 02:55 | 53.37074 | -6.33664 | 9059 ft | 293 kts | 102° |
| 2026-05-06 02:55 | 53.36701 | -6.30274 | 9674 ft | 298 kts | 98° |
| 2026-05-06 02:55 | 53.36362 | -6.26852 | 10552 ft | 302 kts | 98° |
| 2026-05-06 02:56 | 53.36003 | -6.23240 | 10891 ft | 326 kts | 98° |
| 2026-05-06 02:56 | 53.35616 | -6.19432 | 11544 ft | 336 kts | 99° |
| 2026-05-06 02:56 | 53.35212 | -6.15546 | 12393 ft | 341 kts | 99° |
| 2026-05-06 02:56 | 53.34796 | -6.11608 | 13265 ft | 346 kts | 99° |
| 2026-05-06 02:57 | 53.34368 | -6.07610 | 14119 ft | 352 kts | 99° |
| 2026-05-06 02:57 | 53.33931 | -6.03553 | 14938 ft | 356 kts | 99° |
| 2026-05-06 02:57 | 53.33486 | -5.99446 | 15794 ft | 361 kts | 99° |
| 2026-05-06 02:57 | 53.33033 | -5.95292 | 16634 ft | 365 kts | 99° |
| 2026-05-06 02:58 | 53.32573 | -5.91082 | 17462 ft | 371 kts | 100° |
| 2026-05-06 02:58 | 53.32105 | -5.86816 | 18287 ft | 376 kts | 100° |
| 2026-05-06 02:58 | 53.31628 | -5.82486 | 19005 ft | 380 kts | 100° |
| 2026-05-06 02:58 | 53.31151 | -5.78173 | 19724 ft | 384 kts | 100° |
| 2026-05-06 02:59 | 53.30662 | -5.73755 | 20442 ft | 388 kts | 100° |
| 2026-05-06 02:59 | 53.30165 | -5.69291 | 21153 ft | 393 kts | 101° |
| 2026-05-06 02:59 | 53.29662 | -5.64787 | 21913 ft | 395 kts | 101° |
| 2026-05-06 02:59 | 53.29158 | -5.60273 | 22685 ft | 397 kts | 101° |
| 2026-05-06 03:00 | 53.28647 | -5.55733 | 23027 ft | 398 kts | 101° |
| 2026-05-06 03:00 | 53.28135 | -5.51190 | 23024 ft | 397 kts | 101° |
| 2026-05-06 03:00 | 53.27760 | -5.46622 | 23104 ft | 400 kts | 94° |
| 2026-05-06 03:00 | 53.27636 | -5.41959 | 23689 ft | 402 kts | 91° |
| 2026-05-06 03:01 | 53.27572 | -5.37315 | 24520 ft | 397 kts | 91° |
| 2026-05-06 03:01 | 53.27498 | -5.32729 | 25387 ft | 392 kts | 92° |
| 2026-05-06 03:01 | 53.27397 | -5.28198 | 26198 ft | 389 kts | 92° |
| 2026-05-06 03:01 | 53.27274 | -5.23678 | 26806 ft | 391 kts | 92° |
| 2026-05-06 03:02 | 53.27141 | -5.19129 | 27036 ft | 392 kts | 93° |
| 2026-05-06 03:02 | 53.26999 | -5.14577 | 27021 ft | 391 kts | 93° |
| 2026-05-06 03:02 | 53.26850 | -5.10061 | 27042 ft | 389 kts | 93° |
| 2026-05-06 03:02 | 53.26698 | -5.05545 | 27032 ft | 389 kts | 93° |
| 2026-05-06 03:03 | 53.26546 | -5.01036 | 27037 ft | 389 kts | 93° |
| 2026-05-06 03:03 | 53.26392 | -4.96523 | 27040 ft | 389 kts | 93° |
| 2026-05-06 03:03 | 53.26237 | -4.92010 | 27040 ft | 389 kts | 93° |
| 2026-05-06 03:03 | 53.26082 | -4.87498 | 27029 ft | 389 kts | 93° |
| 2026-05-06 03:04 | 53.25926 | -4.82984 | 27036 ft | 389 kts | 93° |
| 2026-05-06 03:04 | 53.25767 | -4.78465 | 27034 ft | 390 kts | 93° |
| 2026-05-06 03:04 | 53.25606 | -4.73950 | 27025 ft | 390 kts | 93° |
| 2026-05-06 03:04 | 53.25449 | -4.69429 | 27029 ft | 390 kts | 93° |
| 2026-05-06 03:05 | 53.25297 | -4.64907 | 27045 ft | 390 kts | 93° |
| 2026-05-06 03:05 | 53.25146 | -4.60388 | 27045 ft | 390 kts | 93° |
| 2026-05-06 03:05 | 53.24992 | -4.55862 | 27054 ft | 390 kts | 93° |
| 2026-05-06 03:05 | 53.24838 | -4.51346 | 27050 ft | 390 kts | 93° |
| 2026-05-06 03:06 | 53.24680 | -4.46824 | 27046 ft | 390 kts | 93° |
| 2026-05-06 03:06 | 53.24521 | -4.42311 | 27050 ft | 390 kts | 93° |
| 2026-05-06 03:06 | 53.24360 | -4.37792 | 27020 ft | 390 kts | 93° |
| 2026-05-06 03:06 | 53.24198 | -4.33280 | 27024 ft | 389 kts | 93° |
| 2026-05-06 03:07 | 53.24034 | -4.28770 | 27045 ft | 389 kts | 93° |
| 2026-05-06 03:07 | 53.23868 | -4.24263 | 27049 ft | 389 kts | 93° |
| 2026-05-06 03:07 | 53.23700 | -4.19757 | 27043 ft | 389 kts | 93° |
| 2026-05-06 03:07 | 53.23531 | -4.15254 | 27039 ft | 389 kts | 94° |
| 2026-05-06 03:08 | 53.23361 | -4.10755 | 27046 ft | 389 kts | 94° |
| 2026-05-06 03:08 | 53.23190 | -4.06251 | 27039 ft | 388 kts | 94° |
| 2026-05-06 03:08 | 53.23016 | -4.01760 | 27040 ft | 388 kts | 94° |
| 2026-05-06 03:08 | 53.22840 | -3.97268 | 27040 ft | 388 kts | 94° |
| 2026-05-06 03:09 | 53.22657 | -3.92777 | 27038 ft | 388 kts | 94° |
| 2026-05-06 03:09 | 53.22470 | -3.88291 | 27040 ft | 387 kts | 94° |
| 2026-05-06 03:09 | 53.22283 | -3.83809 | 27043 ft | 387 kts | 94° |
| 2026-05-06 03:09 | 53.22094 | -3.79335 | 27048 ft | 387 kts | 94° |
| 2026-05-06 03:10 | 53.21905 | -3.74859 | 27039 ft | 387 kts | 94° |
| 2026-05-06 03:10 | 53.21717 | -3.70443 | 27039 ft | 387 kts | 94° |
| 2026-05-06 03:10 | 53.21525 | -3.65968 | 27045 ft | 387 kts | 94° |
| 2026-05-06 03:10 | 53.21331 | -3.61499 | 27049 ft | 387 kts | 94° |
| 2026-05-06 03:11 | 53.21136 | -3.57040 | 27044 ft | 381 kts | 94° |
| 2026-05-06 03:11 | 53.20945 | -3.52706 | 27031 ft | 368 kts | 94° |
| 2026-05-06 03:11 | 53.20760 | -3.48522 | 27026 ft | 355 kts | 94° |
| 2026-05-06 03:11 | 53.20581 | -3.44494 | 27027 ft | 342 kts | 94° |
| 2026-05-06 03:12 | 53.20407 | -3.40610 | 27023 ft | 329 kts | 94° |
| 2026-05-06 03:12 | 53.20239 | -3.36876 | 27026 ft | 316 kts | 94° |
| 2026-05-06 03:12 | 53.20076 | -3.33283 | 27026 ft | 306 kts | 94° |
| 2026-05-06 03:12 | 53.19917 | -3.29781 | 27031 ft | 302 kts | 94° |
| 2026-05-06 03:13 | 53.19753 | -3.26230 | 27068 ft | 313 kts | 94° |
| 2026-05-06 03:13 | 53.19575 | -3.22564 | 27062 ft | 321 kts | 97° |
| 2026-05-06 03:13 | 53.19071 | -3.18942 | 27043 ft | 321 kts | 111° |
| 2026-05-06 03:13 | 53.18125 | -3.15608 | 27034 ft | 317 kts | 123° |
| 2026-05-06 03:14 | 53.16958 | -3.12512 | 27056 ft | 315 kts | 124° |
| 2026-05-06 03:14 | 53.15770 | -3.09450 | 27038 ft | 314 kts | 124° |
| 2026-05-06 03:14 | 53.14587 | -3.06399 | 27040 ft | 313 kts | 124° |
| 2026-05-06 03:14 | 53.13417 | -3.03356 | 27059 ft | 312 kts | 124° |
| 2026-05-06 03:15 | 53.12253 | -3.00313 | 27039 ft | 311 kts | 124° |
| 2026-05-06 03:15 | 53.11094 | -2.97272 | 27043 ft | 311 kts | 124° |
| 2026-05-06 03:15 | 53.09938 | -2.94239 | 27043 ft | 311 kts | 124° |
| 2026-05-06 03:15 | 53.08780 | -2.91205 | 27056 ft | 311 kts | 123° |
| 2026-05-06 03:16 | 53.07821 | -2.87977 | 27041 ft | 313 kts | 110° |
| 2026-05-06 03:16 | 53.07300 | -2.84468 | 27044 ft | 314 kts | 98° |
| 2026-05-06 03:16 | 53.07004 | -2.80868 | 27061 ft | 315 kts | 97° |
| 2026-05-06 03:16 | 53.06733 | -2.77246 | 27050 ft | 316 kts | 97° |
| 2026-05-06 03:17 | 53.06462 | -2.73610 | 27054 ft | 318 kts | 97° |
| 2026-05-06 03:17 | 53.06184 | -2.69964 | 27046 ft | 319 kts | 97° |
| 2026-05-06 03:17 | 53.05899 | -2.66304 | 27050 ft | 320 kts | 97° |
| 2026-05-06 03:17 | 53.05608 | -2.62639 | 27041 ft | 320 kts | 98° |
| 2026-05-06 03:18 | 53.05313 | -2.58969 | 27049 ft | 321 kts | 98° |
| 2026-05-06 03:18 | 53.05015 | -2.55295 | 27040 ft | 320 kts | 98° |
| 2026-05-06 03:18 | 53.04717 | -2.51640 | 26572 ft | 322 kts | 98° |
| 2026-05-06 03:18 | 53.04409 | -2.47890 | 25673 ft | 335 kts | 98° |
| 2026-05-06 03:19 | 53.04083 | -2.43931 | 24487 ft | 356 kts | 98° |
| 2026-05-06 03:19 | 53.03739 | -2.39762 | 23424 ft | 370 kts | 98° |
| 2026-05-06 03:19 | 53.03385 | -2.35511 | 22608 ft | 371 kts | 98° |
| 2026-05-06 03:19 | 53.03037 | -2.31305 | 22027 ft | 364 kts | 97° |
| 2026-05-06 03:20 | 53.03129 | -2.23081 | 20815 ft | 355 kts | 84° |
| 2026-05-06 03:20 | 53.03348 | -2.18960 | 20193 ft | 352 kts | 84° |
| 2026-05-06 03:20 | 53.03550 | -2.14928 | 19599 ft | 349 kts | 84° |
| 2026-05-06 03:21 | 53.03729 | -2.10989 | 19041 ft | 345 kts | 85° |
| 2026-05-06 03:21 | 53.03894 | -2.07031 | 18480 ft | 342 kts | 85° |
| 2026-05-06 03:21 | 53.04050 | -2.03102 | 17862 ft | 339 kts | 85° |
| 2026-05-06 03:21 | 53.04199 | -1.99217 | 17253 ft | 336 kts | 85° |
| 2026-05-06 03:22 | 53.04346 | -1.95380 | 16780 ft | 328 kts | 85° |
| 2026-05-06 03:22 | 53.04486 | -1.91659 | 16429 ft | 318 kts | 85° |
| 2026-05-06 03:22 | 53.04623 | -1.88014 | 15936 ft | 314 kts | 85° |
| 2026-05-06 03:22 | 53.04758 | -1.84399 | 15402 ft | 313 kts | 85° |
| 2026-05-06 03:23 | 53.04892 | -1.80808 | 14929 ft | 309 kts | 85° |
| 2026-05-06 03:23 | 53.05018 | -1.77385 | 14794 ft | 294 kts | 85° |
| 2026-05-06 03:23 | 53.05139 | -1.74081 | 14681 ft | 279 kts | 85° |
| 2026-05-06 03:23 | 53.05253 | -1.70915 | 14379 ft | 273 kts | 85° |
| 2026-05-06 03:24 | 53.05366 | -1.67788 | 14080 ft | 268 kts | 85° |
| 2026-05-06 03:24 | 53.05271 | -1.64753 | 13815 ft | 262 kts | 107° |
| 2026-05-06 03:24 | 53.04358 | -1.62194 | 13432 ft | 258 kts | 137° |
| 2026-05-06 03:24 | 53.02857 | -1.60649 | 12998 ft | 254 kts | 165° |
| 2026-05-06 03:25 | 53.01136 | -1.60382 | 12588 ft | 247 kts | 192° |
| 2026-05-06 03:25 | 52.99563 | -1.61373 | 12159 ft | 240 kts | 218° |
| 2026-05-06 03:25 | 52.98419 | -1.63336 | 11719 ft | 236 kts | 241° |
| 2026-05-06 03:25 | 52.97803 | -1.65812 | 11322 ft | 231 kts | 263° |
| 2026-05-06 03:26 | 52.97656 | -1.68443 | 10953 ft | 229 kts | 268° |
| 2026-05-06 03:26 | 52.97549 | -1.71075 | 10578 ft | 228 kts | 269° |
| 2026-05-06 03:26 | 52.97441 | -1.73699 | 10226 ft | 227 kts | 268° |
| 2026-05-06 03:26 | 52.97331 | -1.76312 | 9871 ft | 227 kts | 269° |
| 2026-05-06 03:27 | 52.97233 | -1.78915 | 9494 ft | 224 kts | 274° |
| 2026-05-06 03:27 | 52.97614 | -1.81361 | 9104 ft | 219 kts | 300° |
| 2026-05-06 03:27 | 52.98537 | -1.83321 | 8749 ft | 215 kts | 320° |
| 2026-05-06 03:27 | 52.99867 | -1.84323 | 8328 ft | 215 kts | 356° |
| 2026-05-06 03:28 | 53.01327 | -1.84061 | 8015 ft | 213 kts | 9° |
| 2026-05-06 03:28 | 53.02727 | -1.83251 | 7625 ft | 216 kts | 26° |
| 2026-05-06 03:28 | 53.03890 | -1.81671 | 7286 ft | 218 kts | 46° |
| 2026-05-06 03:28 | 53.04687 | -1.79519 | 6950 ft | 222 kts | 66° |
| 2026-05-06 03:29 | 53.04960 | -1.76995 | 6695 ft | 223 kts | 82° |
| 2026-05-06 03:29 | 53.05074 | -1.74420 | 6456 ft | 224 kts | 82° |
| 2026-05-06 03:29 | 53.05188 | -1.71834 | 6192 ft | 224 kts | 82° |
| 2026-05-06 03:29 | 53.05300 | -1.69262 | 5930 ft | 222 kts | 82° |
| 2026-05-06 03:30 | 53.05395 | -1.66710 | 5644 ft | 222 kts | 88° |
| 2026-05-06 03:30 | 53.04887 | -1.64242 | 5383 ft | 241 kts | 129° |
| 2026-05-06 03:30 | 53.03484 | -1.62801 | 5165 ft | 238 kts | 169° |
| 2026-05-06 03:30 | 53.01890 | -1.62872 | 4919 ft | 224 kts | 188° |
| 2026-05-06 03:31 | 53.00364 | -1.63052 | 4640 ft | 216 kts | 181° |
| 2026-05-06 03:31 | 52.98885 | -1.62997 | 4360 ft | 209 kts | 176° |
| 2026-05-06 03:31 | 52.97456 | -1.62779 | 4090 ft | 203 kts | 172° |
| 2026-05-06 03:31 | 52.96072 | -1.62454 | 3815 ft | 198 kts | 168° |
| 2026-05-06 03:32 | 52.94742 | -1.62067 | 3556 ft | 194 kts | 166° |
| 2026-05-06 03:32 | 52.93430 | -1.61632 | 3332 ft | 191 kts | 164° |
| 2026-05-06 03:32 | 52.92138 | -1.61163 | 3072 ft | 189 kts | 163° |
| 2026-05-06 03:32 | 52.90866 | -1.60668 | 2816 ft | 187 kts | 162° |
| 2026-05-06 03:33 | 52.89608 | -1.60156 | 2553 ft | 186 kts | 161° |
| 2026-05-06 03:33 | 52.88360 | -1.59635 | 2305 ft | 184 kts | 161° |
| 2026-05-06 03:33 | 52.87137 | -1.59121 | 2146 ft | 177 kts | 160° |
| 2026-05-06 03:33 | 52.85975 | -1.58629 | 2055 ft | 171 kts | 160° |
| 2026-05-06 03:34 | 52.84821 | -1.58137 | 2013 ft | 171 kts | 160° |
| 2026-05-06 03:34 | 52.83687 | -1.57602 | 1991 ft | 166 kts | 148° |
| 2026-05-06 03:34 | 52.83020 | -1.56315 | 2001 ft | 142 kts | 92° |
| 2026-05-06 03:34 | 52.82978 | -1.55233 | 2030 ft | 147 kts | 89° |
| 2026-05-06 03:35 | 52.82893 | -1.53572 | 2006 ft | 141 kts | 91° |
| 2026-05-06 03:35 | 52.82822 | -1.52033 | 1990 ft | 132 kts | 87° |
| 2026-05-06 03:35 | 52.82811 | -1.50049 | 2002 ft | 131 kts | 84° |
| 2026-05-06 03:35 | 52.82829 | -1.48528 | 1939 ft | 135 kts | 84° |
| 2026-05-06 03:36 | 52.82845 | -1.47486 | 1908 ft | 133 kts | 84° |
| 2026-05-06 03:36 | 52.82870 | -1.45940 | 1725 ft | 134 kts | 83° |
| 2026-05-06 03:36 | 52.82896 | -1.44401 | 1532 ft | 134 kts | 83° |
| 2026-05-06 03:36 | 52.82923 | -1.42869 | 1341 ft | 135 kts | 84° |
| 2026-05-06 03:37 | 52.82945 | -1.41289 | 1088 ft | 142 kts | 85° |
| 2026-05-06 03:37 | 52.82966 | -1.39613 | 876 ft | 144 kts | 83° |
| 2026-05-06 03:37 | 52.83010 | -1.37966 | 744 ft | 145 kts | 86° |
| 2026-05-06 03:37 | 52.83048 | -1.36288 | 534 ft | 146 kts | 85° |
| 2026-05-06 03:38 | 52.83069 | -1.34649 | 332 ft | 143 kts | 86° |
| 2026-05-06 03:38 | 52.83098 | -1.33103 | 306 ft | 114 kts | 86° |
| 2026-05-06 03:38 | 52.83115 | -1.32044 | 305 ft | 70 kts | 88° |
| 2026-05-06 03:38 | 52.83125 | -1.31487 | 307 ft | 27 kts | 89° |
| 2026-05-06 03:39 | 52.83111 | -1.31334 | 305 ft | 11 kts | 136° |
| 2026-05-06 03:39 | 52.83030 | -1.31316 | 302 ft | 13 kts | 178° |
| 2026-05-06 03:39 | 52.82958 | -1.31384 | 302 ft | 13 kts | 259° |
| 2026-05-06 03:39 | 52.82954 | -1.31533 | 300 ft | 13 kts | 268° |
| 2026-05-06 03:40 | 52.82952 | -1.31678 | 300 ft | 12 kts | 269° |
| 2026-05-06 03:40 | 52.82950 | -1.31822 | 300 ft | 13 kts | 269° |
| 2026-05-06 03:40 | 52.82946 | -1.31991 | 301 ft | 16 kts | 268° |
| 2026-05-06 03:40 | 52.82942 | -1.32172 | 300 ft | 16 kts | 269° |
| 2026-05-06 03:41 | 52.82940 | -1.32358 | 300 ft | 16 kts | 268° |
| 2026-05-06 03:41 | 52.82936 | -1.32538 | 300 ft | 16 kts | 268° |
| 2026-05-06 03:41 | 52.82933 | -1.32716 | 300 ft | 15 kts | 268° |
| 2026-05-06 03:41 | 52.82930 | -1.32888 | 301 ft | 15 kts | 268° |
| 2026-05-06 03:42 | 52.82927 | -1.33068 | 301 ft | 17 kts | 268° |
| 2026-05-06 03:42 | 52.82923 | -1.33261 | 302 ft | 17 kts | 268° |
| 2026-05-06 03:42 | 52.82919 | -1.33463 | 307 ft | 20 kts | 268° |
| 2026-05-06 03:42 | 52.82915 | -1.33709 | 306 ft | 22 kts | 268° |
| 2026-05-06 03:43 | 52.82911 | -1.33956 | 303 ft | 21 kts | 268° |
| 2026-05-06 03:43 | 52.82907 | -1.34205 | 300 ft | 22 kts | 270° |
| 2026-05-06 03:43 | 52.82904 | -1.34382 | 304 ft | 11 kts | 253° |
| 2026-05-06 03:43 | 52.82832 | -1.34458 | 300 ft | 14 kts | 226° |
| 2026-05-06 03:44 | 52.82750 | -1.34486 | 302 ft | 9 kts | 178° |
| 2026-05-06 03:44 | 52.82709 | -1.34490 | 303 ft | 3 kts | 206° |
| 2026-05-06 03:44 | 52.82701 | -1.34521 | 301 ft | 3 kts | 259° |
| 2026-05-06 03:44 | 52.82699 | -1.34559 | 299 ft | 3 kts | 267° |
| 2026-05-06 03:45 | 52.82698 | -1.34581 | 299 ft | 0 kts | 268° |